Latest Weather Observations for Coonawarra

IDS60801

Issued at 5:35 am CDT Saturday 1 November 2014 (issued every 30 minutes, with the page automatically refreshed every 10 minutes)

About weather observations | Map of weather stations | Latest weather observations for SA | Other Formats
Station Details ID: 026091 Name: COONAWARRA Lat: -37.29 Lon: 140.83 Height: 57.0 m
Data from the previous 72 hours. | See also: Recent months at Coonawarra
Date/Time
CDT
Temp
°C
App
Temp
°C
Dew
Point
Rel
Hum
%
Delta-T
°C
Wind Press
QNH
hPa
Press
MSL
hPa
Rain
since 9 am
mm
Dir
 
Spd
km/h
Gust
km/h
Spd
kts
Gust
kts
01/05:30am 10.7 7.9 8.5 86 1.1 W 13 19 7 10 1005.7 1005.6 -
01/05:00am 11.3 7.9 9.3 87 1.0 WSW 17 24 9 13 1005.1 1005.1 -
01/04:30am 11.2 8.7 9.8 91 0.7 WSW 13 24 7 13 1004.6 1004.6 -
01/04:00am 11.1 7.3 9.9 92 0.6 WSW 20 28 11 15 1004.0 1004.0 -
01/03:30am 11.7 5.3 9.5 86 1.1 WSW 33 56 18 30 1003.5 1003.5 -
01/03:09am 12.5 7.5 10.8 89 0.9 W 28 46 15 25 1003.0 1003.0 -
01/03:00am 12.7 8.5 11.0 89 0.9 W 24 35 13 19 1002.8 1002.8 -
01/02:30am 12.5 9.3 11.8 95 0.4 W 20 35 11 19 1002.5 1002.5 -
01/02:00am 12.5 10.2 11.8 95 0.4 WNW 15 20 8 11 1002.5 1002.5 -
01/01:30am 12.8 10.0 11.5 92 0.7 W 17 20 9 11 1002.6 1002.6 0.8
01/01:00am 13.0 10.7 11.7 92 0.7 WNW 15 20 8 11 1003.0 1003.0 0.8
01/12:30am 13.1 10.8 11.8 92 0.7 W 15 20 8 11 1003.1 1003.1 0.8
01/12:00am 13.3 11.3 11.6 89 0.9 WNW 13 17 7 9 1003.1 1003.1 0.8
 
Date/Time
CDT
Temp
°C
App
Temp
°C
Dew
Point
Rel
Hum
%
Delta-T
°C
Wind Press
QNH
hPa
Press
MSL
hPa
Rain
since 9 am
mm
Dir
 
Spd
km/h
Gust
km/h
Spd
kts
Gust
kts
31/11:30pm 13.9 14.0 11.5 85 1.3 W 2 9 1 5 1002.7 1002.7 0.0
31/11:00pm 14.2 13.0 10.4 78 2.0 SW 7 9 4 5 1002.8 1002.8 0.0
31/10:30pm 14.5 11.4 10.3 76 2.2 WSW 17 26 9 14 1003.6 1003.6 0.0
31/10:00pm 15.1 11.4 9.5 69 2.9 WSW 19 30 10 16 1004.1 1004.1 0.0
31/09:30pm 15.6 13.9 12.5 82 1.7 WSW 13 20 7 11 1003.7 1003.7 0.0
31/09:00pm 15.8 13.0 12.6 81 1.8 WSW 19 28 10 15 1002.3 1002.3 0.0
31/08:30pm 16.1 12.3 12.3 78 2.1 SW 24 33 13 18 1001.3 1001.3 0.0
31/08:00pm 16.8 13.1 12.7 77 2.3 WSW 24 35 13 19 1001.8 1001.8 0.0
31/07:30pm 17.6 12.7 12.6 72 2.8 SW 30 41 16 22 1000.8 1000.8 0.0
31/07:00pm 20.2 16.4 11.2 56 5.0 SW 22 32 12 17 999.5 999.5 0.0
31/06:30pm 22.9 17.9 6.4 34 8.5 WSW 22 35 12 19 998.7 998.7 0.0
31/06:00pm 25.6 20.0 5.4 27 10.4 WSW 24 44 13 24 998.2 998.2 0.0
31/05:30pm 27.8 20.1 3.4 21 12.3 W 33 44 18 24 997.9 997.9 0.0
31/05:12pm 29.8 21.0 1.4 16 13.9 W 37 46 20 25 997.5 997.5 0.0
31/05:00pm 30.9 22.4 -1.9 12 15.3 WNW 33 50 18 27 997.5 997.5 0.0
31/04:57pm 31.6 23.3 -1.9 11 15.7 WNW 32 50 17 27 997.5 997.5 0.0
31/04:30pm 32.6 24.3 -2.0 11 16.4 WNW 32 48 17 26 997.8 997.8 0.0
31/04:00pm 32.3 23.5 -4.0 9 16.5 WNW 33 54 18 29 998.2 998.2 0.0
31/03:46pm 33.0 24.1 -2.3 10 16.6 W 35 54 19 29 998.4 998.4 0.0
31/03:30pm 32.6 23.1 -3.6 9 16.7 WNW 37 48 20 26 998.6 998.6 0.0
31/03:00pm 32.6 24.2 -2.5 10 16.5 WNW 32 50 17 27 999.1 999.1 0.0
31/02:30pm 33.2 25.0 -1.3 11 16.6 NNW 32 50 17 27 999.9 999.9 0.0
31/02:00pm 31.1 23.9 0.8 14 14.8 NNW 28 39 15 21 1000.6 1000.6 0.0
31/01:30pm 29.8 22.1 -0.4 14 14.4 NNW 30 43 16 23 1001.3 1001.3 0.0
31/01:12pm 29.8 22.0 -0.8 14 14.4 N 30 48 16 26 1001.6 1001.6 0.0
31/01:00pm 29.7 21.8 -1.6 13 14.5 N 30 43 16 23 1001.9 1001.9 0.0
31/12:30pm 29.9 21.5 -1.0 13 14.6 N 33 54 18 29 1002.4 1002.4 0.0
31/12:11pm 29.2 22.1 1.5 17 13.5 N 28 46 15 25 1002.7 1002.7 0.0
31/12:00pm 28.5 20.5 0.6 16 13.4 N 32 46 17 25 1003.0 1003.0 0.0
31/11:35am 27.0 19.0 0.4 17 12.5 N 32 50 17 27 1003.5 1003.5 0.0
31/11:30am 26.9 18.7 0.2 17 12.6 N 33 50 18 27 1003.6 1003.6 0.0
31/11:28am 27.1 19.1 0.2 17 12.7 N 32 50 17 27 1003.6 1003.6 0.0
31/11:00am 27.3 19.5 1.8 19 12.4 N 32 48 17 26 1004.3 1004.3 0.0
31/10:30am 26.0 18.9 3.5 23 11.2 N 30 44 16 24 1004.6 1004.6 0.0
31/10:00am 23.9 18.0 5.7 31 9.3 NNE 26 37 14 20 1005.1 1005.1 0.0
31/09:30am 21.1 15.8 6.8 39 7.3 N 24 35 13 19 1005.8 1005.7 0.0
31/09:00am 19.5 15.1 7.6 46 6.1 N 20 33 11 18 1006.2 1006.1 0.0
31/08:30am 18.1 12.3 8.0 51 5.2 NNE 28 37 15 20 1006.2 1006.1 0.0
31/08:00am 16.5 11.8 7.8 56 4.4 NNE 22 35 12 19 1006.6 1006.5 0.0
31/07:30am 15.5 10.5 8.0 61 3.8 NNE 24 33 13 18 1006.6 1006.5 0.0
31/07:00am 14.3 10.7 8.4 67 3.0 NE 17 22 9 12 1006.6 1006.5 0.0
31/06:30am 12.5 10.2 8.9 79 1.8 NE 11 13 6 7 1007.2 1007.1 0.0
31/06:00am 11.6 9.3 9.0 84 1.3 NE 11 11 6 6 1007.6 1007.5 0.0
31/05:30am 11.9 11.8 9.3 84 1.3 CALM 0 0 0 0 1007.9 1007.9 0.0
31/05:00am 12.4 10.9 9.2 81 1.6 NE 7 11 4 6 1008.0 1008.0 0.0
31/04:30am 12.1 9.5 9.3 83 1.4 NE 13 17 7 9 1007.9 1007.9 0.0
31/04:00am 10.8 8.4 8.8 87 1.0 NE 11 13 6 7 1008.5 1008.5 0.0
31/03:30am 10.1 8.4 8.3 88 0.9 ENE 7 9 4 5 1009.2 1009.2 0.0
31/03:00am 9.5 7.7 8.1 91 0.7 E 7 9 4 5 1009.8 1009.8 0.0
31/02:30am 9.3 8.4 7.8 90 0.7 E 2 7 1 4 1010.2 1010.2 0.0
31/02:00am 9.2 8.2 7.5 89 0.8 E 2 7 1 4 1010.8 1010.8 0.0
31/01:30am 9.2 7.3 7.5 89 0.8 E 7 9 4 5 1011.3 1011.3 0.0
31/01:00am 10.4 8.6 8.1 86 1.1 ESE 7 9 4 5 1012.1 1012.1 0.0
31/12:30am 10.8 8.7 8.4 85 1.2 E 9 11 5 6 1012.4 1012.4 0.0
31/12:00am 10.9 8.9 8.5 85 1.2 E 9 11 5 6 1012.6 1012.6 0.0
 
Date/Time
CDT
Temp
°C
App
Temp
°C
Dew
Point
Rel
Hum
%
Delta-T
°C
Wind Press
QNH
hPa
Press
MSL
hPa
Rain
since 9 am
mm
Dir
 
Spd
km/h
Gust
km/h
Spd
kts
Gust
kts
30/11:30pm 11.1 8.7 8.5 84 1.3 ESE 11 13 6 7 1012.9 1012.9 0.0
30/11:00pm 12.0 10.0 8.6 80 1.7 SE 9 13 5 7 1013.3 1013.3 0.0
30/10:30pm 12.4 10.0 8.8 79 1.8 SE 11 13 6 7 1013.6 1013.6 0.0
30/10:00pm 12.5 10.5 8.7 77 1.9 SSE 9 13 5 7 1014.0 1014.0 0.0
30/09:30pm 12.5 10.5 8.7 77 1.9 S 9 11 5 6 1014.2 1014.2 0.0
30/09:00pm 13.1 10.3 8.7 74 2.2 SSW 13 17 7 9 1014.1 1014.1 0.0
30/08:30pm 13.8 11.5 9.1 73 2.4 SW 11 15 6 8 1013.6 1013.6 0.0
30/08:00pm 15.6 12.6 9.2 65 3.3 SW 15 20 8 11 1013.4 1013.4 0.0
30/07:30pm 17.2 14.2 9.4 60 4.1 SSW 15 20 8 11 1013.0 1013.0 0.0
30/07:00pm 18.7 15.4 9.4 54 4.9 SSW 17 20 9 11 1012.7 1012.7 0.0
30/06:30pm 19.6 15.8 9.2 51 5.5 SSW 19 24 10 13 1012.6 1012.6 0.0
30/06:00pm 20.6 17.1 8.6 46 6.3 SSW 17 22 9 12 1012.5 1012.5 0.0
30/05:30pm 22.0 18.8 6.8 37 7.8 SSW 13 20 7 11 1012.4 1012.4 0.0
30/05:00pm 21.9 18.6 6.4 36 7.9 W 13 20 7 11 1012.6 1012.6 0.0
30/04:30pm 22.2 18.8 6.0 35 8.2 WSW 13 24 7 13 1013.0 1013.0 0.0
30/04:00pm 22.5 18.8 6.5 35 8.2 W 15 22 8 12 1013.2 1013.2 0.0
30/03:30pm 21.8 18.1 6.5 37 7.8 W 15 26 8 14 1013.4 1013.4 0.0
30/03:00pm 21.4 18.6 7.0 39 7.4 W 11 20 6 11 1013.9 1013.9 0.0
30/02:30pm 20.7 17.2 7.2 41 6.9 WNW 15 26 8 14 1014.3 1014.3 0.0
30/02:00pm 19.8 16.8 7.8 46 6.2 WNW 13 26 7 14 1014.5 1014.5 0.0
30/01:30pm 19.8 16.5 8.0 46 6.1 WNW 15 20 8 11 1014.9 1014.9 0.0
30/01:00pm 19.9 17.1 8.4 47 6.0 WNW 13 24 7 13 1015.1 1015.1 0.0
30/12:30pm 17.9 15.6 7.4 50 5.3 NW 9 17 5 9 1015.4 1015.4 0.0
30/12:00pm 17.0 14.4 7.9 55 4.6 WSW 11 19 6 10 1015.9 1015.9 0.0
30/11:30am 16.6 13.6 7.7 55 4.5 NW 13 17 7 9 1016.2 1016.2 0.0
30/11:00am 15.5 13.9 8.6 63 3.5 W 7 15 4 8 1016.4 1016.4 0.0
30/10:30am 15.1 13.7 9.5 69 2.9 WNW 7 13 4 7 1016.6 1016.6 0.0
30/10:00am 14.1 11.6 9.8 75 2.2 SW 13 17 7 9 1016.9 1016.9 0.0
30/09:30am 14.5 12.8 9.7 73 2.5 WSW 9 15 5 8 1016.7 1016.7 0.0
30/09:00am 14.4 11.7 9.1 70 2.7 WNW 13 17 7 9 1016.6 1016.6 0.0
30/08:30am 14.0 11.7 9.1 72 2.5 NNW 11 15 6 8 1016.6 1016.6 0.0
30/08:00am 13.1 10.9 9.4 78 1.9 NNW 11 15 6 8 1016.6 1016.6 0.0
30/07:30am 12.3 10.5 9.5 83 1.4 N 9 11 5 6 1015.9 1015.9 0.0
30/07:00am 11.3 9.9 9.7 90 0.8 N 7 9 4 5 1016.0 1016.0 0.0
30/06:30am 10.7 9.5 9.7 93 0.5 NNE 6 7 3 4 1016.0 1016.0 0.0
30/06:00am 10.3 8.9 9.5 95 0.4 N 7 9 4 5 1015.5 1015.5 0.0
30/05:30am 10.0 9.1 9.2 95 0.4 N 4 7 2 4 1015.6 1015.6 0.0
30/05:00am 9.8 8.4 9.0 95 0.4 N 6 7 3 4 1015.3 1015.3 0.0
30/04:30am 9.8 8.3 9.0 95 0.4 NNE 7 11 4 6 1014.9 1014.9 0.0
30/04:00am 9.3 7.7 8.7 96 0.3 NNE 7 9 4 5 1015.4 1015.4 0.0
30/03:30am 8.8 8.4 8.4 97 0.2 CALM 0 0 0 0 1016.3 1016.3 0.0
30/03:00am 8.3 6.7 7.9 97 0.2 N 6 7 3 4 1015.8 1015.8 0.0
30/02:30am 7.8 6.1 7.4 97 0.2 N 6 9 3 5 1015.8 1015.8 0.0
30/02:00am 6.7 4.2 6.5 99 0.1 N 9 13 5 7 1015.7 1015.7 0.0
30/01:30am 6.7 4.0 5.8 94 0.4 NNW 9 11 5 6 1015.9 1015.9 0.0
30/01:00am 7.2 4.6 6.3 94 0.4 N 9 9 5 5 1016.2 1016.2 0.0
30/12:30am 7.9 5.6 7.3 96 0.3 N 9 9 5 5 1016.4 1016.4 0.0
30/12:00am 8.3 7.8 7.7 96 0.3 CALM 0 0 0 0 1016.7 1016.7 0.0
 
Date/Time
CDT
Temp
°C
App
Temp
°C
Dew
Point
Rel
Hum
%
Delta-T
°C
Wind Press
QNH
hPa
Press
MSL
hPa
Rain
since 9 am
mm
Dir
 
Spd
km/h
Gust
km/h
Spd
kts
Gust
kts
29/11:30pm 7.9 7.2 6.8 93 0.5 CALM 0 0 0 0 1017.0 1017.0 0.0
29/11:00pm 8.1 7.5 7.5 96 0.3 CALM 0 2 0 1 1017.2 1017.2 0.0
29/10:30pm 8.5 7.8 7.0 90 0.7 CALM 0 0 0 0 1017.2 1017.2 0.0
29/10:00pm 10.0 9.7 8.6 91 0.7 CALM 0 0 0 0 1017.4 1017.4 0.0
29/09:30pm 11.0 10.5 9.4 90 0.8 SSW 2 6 1 3 1017.4 1017.4 0.0
29/09:00pm 12.3 11.0 10.0 86 1.2 SW 7 9 4 5 1017.4 1017.4 0.0
29/08:30pm 13.2 10.8 10.1 81 1.6 SW 13 19 7 10 1017.2 1017.2 0.0
29/08:00pm 13.8 11.1 10.3 79 1.8 SW 15 22 8 12 1017.2 1017.2 0.0
29/07:30pm 14.1 11.7 10.1 77 2.1 WSW 13 17 7 9 1017.3 1017.3 0.0
29/07:00pm 15.3 11.8 10.1 71 2.7 WSW 19 24 10 13 1017.2 1017.2 0.0
29/06:30pm 15.8 12.3 10.3 70 2.9 WSW 19 24 10 13 1017.0 1017.0 0.0
29/06:00pm 16.3 12.2 10.2 67 3.2 WSW 22 30 12 16 1016.7 1016.7 0.0
29/05:30pm 17.6 13.7 9.4 58 4.3 WSW 20 28 11 15 1016.8 1016.8 0.0
29/05:00pm 17.9 12.6 8.4 53 4.9 W 26 33 14 18 1016.7 1016.7 0.0
29/04:30pm 18.4 12.6 7.8 50 5.4 W 28 37 15 20 1016.5 1016.5 0.0
29/04:00pm 18.8 14.1 7.6 48 5.7 WNW 22 35 12 19 1016.5 1016.5 0.0
29/03:30pm 19.0 14.0 8.1 49 5.6 WNW 24 35 13 19 1016.5 1016.5 0.0
29/03:00pm 19.6 15.5 8.7 49 5.7 WNW 20 28 11 15 1016.6 1016.6 0.0
29/02:30pm 19.4 15.2 7.4 45 6.1 W 19 26 10 14 1016.9 1016.9 0.0
29/02:00pm 20.2 14.7 7.5 43 6.5 WNW 26 43 14 23 1017.1 1017.1 0.0
29/01:30pm 19.6 15.6 8.2 47 5.9 WNW 19 26 10 14 1017.2 1017.2 0.0
29/01:00pm 18.0 13.8 8.3 53 5.0 WNW 20 32 11 17 1017.6 1017.6 0.0
29/12:30pm 18.1 13.9 8.1 52 5.1 NW 20 30 11 16 1017.9 1017.9 0.0
29/12:00pm 17.0 13.0 8.2 56 4.5 NW 19 26 10 14 1018.2 1018.2 0.0
29/11:30am 16.9 12.9 8.3 57 4.4 NW 19 28 10 15 1018.7 1018.7 0.0
29/11:00am 16.3 12.3 8.2 58 4.1 NW 19 26 10 14 1019.0 1019.0 0.0
29/10:30am 15.6 12.0 8.3 62 3.7 WNW 17 24 9 13 1019.2 1019.2 0.0
29/10:00am 15.1 11.5 8.4 64 3.4 W 17 20 9 11 1019.4 1019.4 0.0
29/09:30am 14.7 10.5 7.6 62 3.5 NNW 19 26 10 14 1019.3 1019.3 0.0
29/09:00am 14.4 11.1 8.0 65 3.2 NNW 15 24 8 13 1019.3 1019.3 0.2
29/08:30am 13.4 10.7 8.8 74 2.3 NNW 13 17 7 9 1019.2 1019.2 0.2
29/08:00am 13.6 11.2 8.6 72 2.5 NW 11 13 6 7 1019.1 1019.1 0.2
29/07:30am 12.6 10.2 8.8 77 1.9 NW 11 15 6 8 1019.1 1019.1 0.2
29/07:00am 11.4 9.6 9.4 87 1.0 N 9 11 5 6 1019.2 1019.2 0.2
29/06:30am 10.9 9.5 9.7 92 0.6 NNW 7 11 4 6 1019.0 1019.0 0.2
29/06:00am 10.8 8.7 9.8 93 0.5 NNW 11 13 6 7 1018.9 1018.9 0.2

Other Formats:

Comma delimited format used in spreadsheet applications
http://www.bom.gov.au/fwo/IDS60801/IDS60801.94817.axf

JavaScript Object Notation format (JSON) in row-major order
http://www.bom.gov.au/fwo/IDS60801/IDS60801.94817.json